sensor_id;sensor_type;location;lat;lon;timestamp;P1;durP1;ratioP1;P2;durP2;ratioP2
31872;SDS011;22407;42.820;23.374;2022-08-11T00:00:39;11.80;;;6.45;;
31872;SDS011;22407;42.820;23.374;2022-08-11T00:03:13;13.73;;;6.53;;
31872;SDS011;22407;42.820;23.374;2022-08-11T00:05:50;11.83;;;6.22;;
31872;SDS011;22407;42.820;23.374;2022-08-11T00:08:24;12.28;;;6.47;;
31872;SDS011;22407;42.820;23.374;2022-08-11T00:11:02;11.83;;;5.78;;
31872;SDS011;22407;42.820;23.374;2022-08-11T00:13:34;10.80;;;5.55;;
31872;SDS011;22407;42.820;23.374;2022-08-11T00:16:10;10.97;;;5.80;;
31872;SDS011;22407;42.820;23.374;2022-08-11T00:18:43;9.85;;;5.22;;
31872;SDS011;22407;42.820;23.374;2022-08-11T00:21:14;10.93;;;5.55;;
31872;SDS011;22407;42.820;23.374;2022-08-11T00:23:45;11.40;;;6.12;;
31872;SDS011;22407;42.820;23.374;2022-08-11T00:26:16;11.85;;;6.03;;
31872;SDS011;22407;42.820;23.374;2022-08-11T00:28:46;11.50;;;5.90;;
31872;SDS011;22407;42.820;23.374;2022-08-11T00:31:31;11.08;;;5.95;;
31872;SDS011;22407;42.820;23.374;2022-08-11T00:33:58;11.55;;;6.10;;
31872;SDS011;22407;42.820;23.374;2022-08-11T00:36:37;10.25;;;5.45;;
31872;SDS011;22407;42.820;23.374;2022-08-11T00:39:06;11.18;;;5.80;;
31872;SDS011;22407;42.820;23.374;2022-08-11T00:47:10;11.93;;;5.75;;
31872;SDS011;22407;42.820;23.374;2022-08-11T00:49:56;11.97;;;5.90;;
31872;SDS011;22407;42.820;23.374;2022-08-11T00:55:24;11.93;;;6.10;;
31872;SDS011;22407;42.820;23.374;2022-08-11T01:11:52;11.28;;;5.70;;
31872;SDS011;22407;42.820;23.374;2022-08-11T01:14:31;12.58;;;5.83;;
31872;SDS011;22407;42.820;23.374;2022-08-11T01:17:04;11.75;;;6.05;;
31872;SDS011;22407;42.820;23.374;2022-08-11T01:19:48;11.60;;;5.97;;
31872;SDS011;22407;42.820;23.374;2022-08-11T01:25:12;11.30;;;5.50;;
31872;SDS011;22407;42.820;23.374;2022-08-11T01:28:05;11.73;;;5.72;;
31872;SDS011;22407;42.820;23.374;2022-08-11T01:33:49;11.65;;;5.70;;
31872;SDS011;22407;42.820;23.374;2022-08-11T01:39:23;11.35;;;6.17;;
31872;SDS011;22407;42.820;23.374;2022-08-11T01:44:51;10.63;;;5.62;;
31872;SDS011;22407;42.820;23.374;2022-08-11T01:53:10;11.22;;;5.72;;
31872;SDS011;22407;42.820;23.374;2022-08-11T01:55:52;10.20;;;5.03;;
31872;SDS011;22407;42.820;23.374;2022-08-11T01:58:49;10.58;;;5.50;;
31872;SDS011;22407;42.820;23.374;2022-08-11T02:13:03;11.55;;;5.33;;
31872;SDS011;22407;42.820;23.374;2022-08-11T02:15:33;10.50;;;5.60;;
31872;SDS011;22407;42.820;23.374;2022-08-11T02:18:04;11.27;;;5.10;;
31872;SDS011;22407;42.820;23.374;2022-08-11T02:20:50;11.43;;;5.67;;
31872;SDS011;22407;42.820;23.374;2022-08-11T02:23:51;11.30;;;5.85;;
31872;SDS011;22407;42.820;23.374;2022-08-11T02:29:15;12.10;;;5.70;;
31872;SDS011;22407;42.820;23.374;2022-08-11T02:32:10;11.80;;;5.87;;
31872;SDS011;22407;42.820;23.374;2022-08-11T02:35:04;13.00;;;6.42;;
31872;SDS011;22407;42.820;23.374;2022-08-11T02:37:57;12.78;;;6.33;;
31872;SDS011;22407;42.820;23.374;2022-08-11T02:40:35;12.40;;;6.50;;
31872;SDS011;22407;42.820;23.374;2022-08-11T02:51:59;13.00;;;6.25;;
31872;SDS011;22407;42.820;23.374;2022-08-11T02:54:43;13.40;;;6.70;;
31872;SDS011;22407;42.820;23.374;2022-08-11T02:57:29;12.65;;;6.85;;
31872;SDS011;22407;42.820;23.374;2022-08-11T03:00:04;13.07;;;6.50;;
31872;SDS011;22407;42.820;23.374;2022-08-11T03:11:06;14.68;;;7.20;;
31872;SDS011;22407;42.820;23.374;2022-08-11T03:14:06;14.73;;;7.20;;
31872;SDS011;22407;42.820;23.374;2022-08-11T03:16:53;13.68;;;6.58;;
31872;SDS011;22407;42.820;23.374;2022-08-11T03:22:16;13.83;;;6.87;;
31872;SDS011;22407;42.820;23.374;2022-08-11T03:30:24;12.90;;;6.40;;
31872;SDS011;22407;42.820;23.374;2022-08-11T03:33:22;11.25;;;5.90;;
31872;SDS011;22407;42.820;23.374;2022-08-11T03:44:27;14.15;;;7.42;;
31872;SDS011;22407;42.820;23.374;2022-08-11T03:55:52;12.50;;;6.47;;
31872;SDS011;22407;42.820;23.374;2022-08-11T03:58:37;14.75;;;6.72;;
31872;SDS011;22407;42.820;23.374;2022-08-11T04:01:17;12.43;;;5.83;;
31872;SDS011;22407;42.820;23.374;2022-08-11T04:30:11;11.97;;;5.55;;
31872;SDS011;22407;42.820;23.374;2022-08-11T04:44:40;15.88;;;7.80;;
31872;SDS011;22407;42.820;23.374;2022-08-11T04:50:46;13.88;;;6.80;;
31872;SDS011;22407;42.820;23.374;2022-08-11T04:56:37;15.00;;;6.90;;
31872;SDS011;22407;42.820;23.374;2022-08-11T04:59:34;13.48;;;7.10;;
31872;SDS011;22407;42.820;23.374;2022-08-11T05:08:27;13.10;;;6.37;;
31872;SDS011;22407;42.820;23.374;2022-08-11T05:13:51;13.62;;;6.85;;
31872;SDS011;22407;42.820;23.374;2022-08-11T05:16:51;12.20;;;5.90;;
31872;SDS011;22407;42.820;23.374;2022-08-11T05:19:44;12.60;;;6.72;;
31872;SDS011;22407;42.820;23.374;2022-08-11T05:22:32;13.40;;;6.80;;
31872;SDS011;22407;42.820;23.374;2022-08-11T05:25:21;12.75;;;5.97;;
31872;SDS011;22407;42.820;23.374;2022-08-11T05:28:10;14.47;;;7.05;;
31872;SDS011;22407;42.820;23.374;2022-08-11T05:31:06;14.60;;;7.58;;
31872;SDS011;22407;42.820;23.374;2022-08-11T05:33:52;12.88;;;6.50;;
31872;SDS011;22407;42.820;23.374;2022-08-11T05:36:44;13.83;;;6.47;;
31872;SDS011;22407;42.820;23.374;2022-08-11T05:39:16;9.63;;;5.40;;
31872;SDS011;22407;42.820;23.374;2022-08-11T05:42:08;10.20;;;5.50;;
31872;SDS011;22407;42.820;23.374;2022-08-11T05:45:00;10.45;;;5.12;;
31872;SDS011;22407;42.820;23.374;2022-08-11T05:47:48;11.93;;;5.70;;
31872;SDS011;22407;42.820;23.374;2022-08-11T05:50:36;10.00;;;5.10;;
31872;SDS011;22407;42.820;23.374;2022-08-11T05:53:24;9.13;;;4.67;;
31872;SDS011;22407;42.820;23.374;2022-08-11T05:56:12;9.63;;;4.45;;
31872;SDS011;22407;42.820;23.374;2022-08-11T05:58:51;9.80;;;5.00;;
31872;SDS011;22407;42.820;23.374;2022-08-11T06:01:26;9.30;;;4.97;;
31872;SDS011;22407;42.820;23.374;2022-08-11T06:04:02;10.80;;;4.60;;
31872;SDS011;22407;42.820;23.374;2022-08-11T06:09:26;8.50;;;4.55;;
31872;SDS011;22407;42.820;23.374;2022-08-11T06:12:10;10.00;;;4.58;;
31872;SDS011;22407;42.820;23.374;2022-08-11T06:14:54;9.08;;;4.40;;
31872;SDS011;22407;42.820;23.374;2022-08-11T06:17:23;8.13;;;4.27;;
31872;SDS011;22407;42.820;23.374;2022-08-11T06:22:32;8.60;;;4.12;;
31872;SDS011;22407;42.820;23.374;2022-08-11T06:25:02;8.85;;;4.55;;
31872;SDS011;22407;42.820;23.374;2022-08-11T06:27:33;8.68;;;4.00;;
31872;SDS011;22407;42.820;23.374;2022-08-11T06:30:04;8.10;;;4.40;;
31872;SDS011;22407;42.820;23.374;2022-08-11T06:32:36;9.18;;;4.05;;
31872;SDS011;22407;42.820;23.374;2022-08-11T06:35:13;8.68;;;4.50;;
31872;SDS011;22407;42.820;23.374;2022-08-11T06:40:27;9.65;;;4.33;;
31872;SDS011;22407;42.820;23.374;2022-08-11T06:45:36;8.60;;;4.80;;
31872;SDS011;22407;42.820;23.374;2022-08-11T06:48:19;8.00;;;4.22;;
31872;SDS011;22407;42.820;23.374;2022-08-11T06:50:50;8.30;;;4.25;;
31872;SDS011;22407;42.820;23.374;2022-08-11T06:53:39;8.83;;;4.47;;
31872;SDS011;22407;42.820;23.374;2022-08-11T06:56:13;9.93;;;4.53;;
31872;SDS011;22407;42.820;23.374;2022-08-11T06:59:01;8.68;;;4.30;;
31872;SDS011;22407;42.820;23.374;2022-08-11T07:01:54;8.20;;;4.30;;
31872;SDS011;22407;42.820;23.374;2022-08-11T07:24:01;8.70;;;4.62;;
31872;SDS011;22407;42.820;23.374;2022-08-11T07:26:50;7.77;;;4.20;;
31872;SDS011;22407;42.820;23.374;2022-08-11T07:29:39;7.83;;;4.25;;
31872;SDS011;22407;42.820;23.374;2022-08-11T07:32:19;8.05;;;4.28;;
31872;SDS011;22407;42.820;23.374;2022-08-11T07:34:44;7.83;;;4.35;;
31872;SDS011;22407;42.820;23.374;2022-08-11T07:37:15;9.28;;;5.00;;
31872;SDS011;22407;42.820;23.374;2022-08-11T07:39:47;9.43;;;4.97;;
31872;SDS011;22407;42.820;23.374;2022-08-11T07:42:19;9.43;;;4.87;;
31872;SDS011;22407;42.820;23.374;2022-08-11T07:44:49;10.65;;;4.47;;
31872;SDS011;22407;42.820;23.374;2022-08-11T07:47:37;7.83;;;4.22;;
31872;SDS011;22407;42.820;23.374;2022-08-11T07:50:25;7.87;;;4.03;;
31872;SDS011;22407;42.820;23.374;2022-08-11T07:53:13;8.30;;;4.20;;
31872;SDS011;22407;42.820;23.374;2022-08-11T07:55:46;8.33;;;4.05;;
31872;SDS011;22407;42.820;23.374;2022-08-11T07:58:16;9.68;;;3.92;;
31872;SDS011;22407;42.820;23.374;2022-08-11T08:01:05;8.23;;;4.40;;
31872;SDS011;22407;42.820;23.374;2022-08-11T08:03:52;8.00;;;4.42;;
31872;SDS011;22407;42.820;23.374;2022-08-11T08:06:39;8.57;;;4.47;;
31872;SDS011;22407;42.820;23.374;2022-08-11T08:09:26;10.68;;;4.70;;
31872;SDS011;22407;42.820;23.374;2022-08-11T08:12:15;10.68;;;4.42;;
31872;SDS011;22407;42.820;23.374;2022-08-11T08:15:05;8.38;;;4.40;;
31872;SDS011;22407;42.820;23.374;2022-08-11T08:17:53;9.30;;;4.62;;
31872;SDS011;22407;42.820;23.374;2022-08-11T08:20:25;10.27;;;5.23;;
31872;SDS011;22407;42.820;23.374;2022-08-11T08:22:57;9.60;;;4.75;;
31872;SDS011;22407;42.820;23.374;2022-08-11T08:25:29;9.85;;;4.80;;
31872;SDS011;22407;42.820;23.374;2022-08-11T08:28:01;9.00;;;4.45;;
31872;SDS011;22407;42.820;23.374;2022-08-11T08:30:31;9.00;;;4.80;;
31872;SDS011;22407;42.820;23.374;2022-08-11T08:33:21;9.50;;;4.87;;
31872;SDS011;22407;42.820;23.374;2022-08-11T08:35:57;10.78;;;4.83;;
31872;SDS011;22407;42.820;23.374;2022-08-11T08:38:47;11.28;;;5.00;;
31872;SDS011;22407;42.820;23.374;2022-08-11T08:41:21;9.50;;;5.00;;
31872;SDS011;22407;42.820;23.374;2022-08-11T08:43:49;10.18;;;4.87;;
31872;SDS011;22407;42.820;23.374;2022-08-11T08:46:26;10.23;;;4.50;;
31872;SDS011;22407;42.820;23.374;2022-08-11T08:49:04;9.80;;;5.00;;
31872;SDS011;22407;42.820;23.374;2022-08-11T08:51:37;9.58;;;4.97;;
31872;SDS011;22407;42.820;23.374;2022-08-11T08:54:11;9.85;;;5.33;;
31872;SDS011;22407;42.820;23.374;2022-08-11T08:56:39;10.28;;;5.08;;
31872;SDS011;22407;42.820;23.374;2022-08-11T08:59:11;9.23;;;4.73;;
31872;SDS011;22407;42.820;23.374;2022-08-11T09:01:59;8.88;;;4.37;;
31872;SDS011;22407;42.820;23.374;2022-08-11T09:04:22;9.23;;;4.80;;
31872;SDS011;22407;42.820;23.374;2022-08-11T09:06:52;12.75;;;5.25;;
31872;SDS011;22407;42.820;23.374;2022-08-11T09:09:29;8.83;;;5.15;;
31872;SDS011;22407;42.820;23.374;2022-08-11T09:11:59;10.50;;;5.30;;
31872;SDS011;22407;42.820;23.374;2022-08-11T09:14:35;11.43;;;5.58;;
31872;SDS011;22407;42.820;23.374;2022-08-11T09:17:23;9.03;;;4.60;;
31872;SDS011;22407;42.820;23.374;2022-08-11T09:20:03;9.73;;;5.10;;
31872;SDS011;22407;42.820;23.374;2022-08-11T09:22:35;10.25;;;4.83;;
31872;SDS011;22407;42.820;23.374;2022-08-11T09:25:25;11.13;;;5.37;;
31872;SDS011;22407;42.820;23.374;2022-08-11T09:28:14;10.45;;;4.50;;
31872;SDS011;22407;42.820;23.374;2022-08-11T09:30:46;9.80;;;5.00;;
31872;SDS011;22407;42.820;23.374;2022-08-11T09:33:21;9.83;;;4.50;;
31872;SDS011;22407;42.820;23.374;2022-08-11T09:35:51;7.87;;;4.20;;
31872;SDS011;22407;42.820;23.374;2022-08-11T09:38:21;10.00;;;4.67;;
31872;SDS011;22407;42.820;23.374;2022-08-11T09:41:11;8.68;;;4.03;;
31872;SDS011;22407;42.820;23.374;2022-08-11T09:43:44;9.25;;;4.42;;
31872;SDS011;22407;42.820;23.374;2022-08-11T09:46:32;10.38;;;4.65;;
31872;SDS011;22407;42.820;23.374;2022-08-11T09:49:01;9.13;;;4.17;;
31872;SDS011;22407;42.820;23.374;2022-08-11T09:51:32;8.83;;;4.50;;
31872;SDS011;22407;42.820;23.374;2022-08-11T09:54:02;8.33;;;4.37;;
31872;SDS011;22407;42.820;23.374;2022-08-11T09:56:35;8.68;;;4.50;;
31872;SDS011;22407;42.820;23.374;2022-08-11T09:59:21;9.85;;;4.78;;
31872;SDS011;22407;42.820;23.374;2022-08-11T10:01:56;7.75;;;3.92;;
31872;SDS011;22407;42.820;23.374;2022-08-11T10:07:08;9.95;;;4.83;;
31872;SDS011;22407;42.820;23.374;2022-08-11T10:09:50;11.08;;;5.67;;
31872;SDS011;22407;42.820;23.374;2022-08-11T10:12:25;8.93;;;4.60;;
31872;SDS011;22407;42.820;23.374;2022-08-11T10:15:08;10.43;;;4.42;;
31872;SDS011;22407;42.820;23.374;2022-08-11T10:17:58;8.53;;;4.07;;
31872;SDS011;22407;42.820;23.374;2022-08-11T10:21:04;8.15;;;4.30;;
31872;SDS011;22407;42.820;23.374;2022-08-11T10:23:34;7.80;;;4.30;;
31872;SDS011;22407;42.820;23.374;2022-08-11T10:26:23;8.25;;;4.42;;
31872;SDS011;22407;42.820;23.374;2022-08-11T10:29:12;8.13;;;4.03;;
31872;SDS011;22407;42.820;23.374;2022-08-11T10:32:01;8.10;;;3.77;;
31872;SDS011;22407;42.820;23.374;2022-08-11T10:34:49;7.87;;;3.25;;
31872;SDS011;22407;42.820;23.374;2022-08-11T10:37:19;8.18;;;3.40;;
31872;SDS011;22407;42.820;23.374;2022-08-11T10:39:50;7.05;;;3.60;;
31872;SDS011;22407;42.820;23.374;2022-08-11T10:42:22;7.10;;;3.67;;
31872;SDS011;22407;42.820;23.374;2022-08-11T10:45:09;7.00;;;3.73;;
31872;SDS011;22407;42.820;23.374;2022-08-11T10:47:56;6.92;;;3.52;;
31872;SDS011;22407;42.820;23.374;2022-08-11T10:50:25;6.85;;;3.40;;
31872;SDS011;22407;42.820;23.374;2022-08-11T10:53:12;8.13;;;3.70;;
31872;SDS011;22407;42.820;23.374;2022-08-11T10:55:59;6.50;;;3.30;;
31872;SDS011;22407;42.820;23.374;2022-08-11T10:58:49;8.43;;;3.60;;
31872;SDS011;22407;42.820;23.374;2022-08-11T11:04:00;8.15;;;3.85;;
31872;SDS011;22407;42.820;23.374;2022-08-11T11:09:30;8.05;;;4.00;;
31872;SDS011;22407;42.820;23.374;2022-08-11T11:12:06;6.93;;;3.20;;
31872;SDS011;22407;42.820;23.374;2022-08-11T11:14:52;7.62;;;3.80;;
31872;SDS011;22407;42.820;23.374;2022-08-11T11:17:49;11.45;;;3.75;;
31872;SDS011;22407;42.820;23.374;2022-08-11T11:29:25;8.90;;;4.00;;
31872;SDS011;22407;42.820;23.374;2022-08-11T11:37:31;8.18;;;3.50;;
31872;SDS011;22407;42.820;23.374;2022-08-11T11:40:07;7.20;;;3.63;;
31872;SDS011;22407;42.820;23.374;2022-08-11T11:42:42;7.37;;;3.62;;
31872;SDS011;22407;42.820;23.374;2022-08-11T11:45:15;7.87;;;4.00;;
31872;SDS011;22407;42.820;23.374;2022-08-11T11:47:49;8.63;;;3.80;;
31872;SDS011;22407;42.820;23.374;2022-08-11T11:50:32;7.78;;;3.98;;
31872;SDS011;22407;42.820;23.374;2022-08-11T11:53:03;7.50;;;3.77;;
31872;SDS011;22407;42.820;23.374;2022-08-11T11:55:34;9.20;;;4.05;;
31872;SDS011;22407;42.820;23.374;2022-08-11T11:58:04;7.70;;;3.30;;
31872;SDS011;22407;42.820;23.374;2022-08-11T12:00:52;8.33;;;3.87;;
31872;SDS011;22407;42.820;23.374;2022-08-11T12:03:39;7.55;;;3.52;;
31872;SDS011;22407;42.820;23.374;2022-08-11T12:06:10;9.00;;;3.63;;
31872;SDS011;22407;42.820;23.374;2022-08-11T12:08:41;9.50;;;3.80;;
31872;SDS011;22407;42.820;23.374;2022-08-11T12:11:11;12.80;;;4.65;;
31872;SDS011;22407;42.820;23.374;2022-08-11T12:14:07;13.62;;;3.95;;
31872;SDS011;22407;42.820;23.374;2022-08-11T12:16:32;10.60;;;4.28;;
31872;SDS011;22407;42.820;23.374;2022-08-11T12:19:07;10.97;;;4.50;;
31872;SDS011;22407;42.820;23.374;2022-08-11T12:21:41;9.08;;;4.20;;
31872;SDS011;22407;42.820;23.374;2022-08-11T12:24:30;8.73;;;4.20;;
31872;SDS011;22407;42.820;23.374;2022-08-11T12:27:19;11.35;;;4.45;;
31872;SDS011;22407;42.820;23.374;2022-08-11T12:29:56;11.78;;;4.67;;
31872;SDS011;22407;42.820;23.374;2022-08-11T12:32:24;10.80;;;4.57;;
31872;SDS011;22407;42.820;23.374;2022-08-11T12:34:55;9.83;;;4.15;;
31872;SDS011;22407;42.820;23.374;2022-08-11T12:37:29;10.88;;;4.30;;
31872;SDS011;22407;42.820;23.374;2022-08-11T12:40:04;8.63;;;4.60;;
31872;SDS011;22407;42.820;23.374;2022-08-11T12:42:52;10.20;;;4.50;;
31872;SDS011;22407;42.820;23.374;2022-08-11T12:45:41;9.30;;;4.17;;
31872;SDS011;22407;42.820;23.374;2022-08-11T12:48:18;12.73;;;4.97;;
31872;SDS011;22407;42.820;23.374;2022-08-11T12:51:07;10.82;;;4.50;;
31872;SDS011;22407;42.820;23.374;2022-08-11T12:53:56;9.43;;;4.15;;
31872;SDS011;22407;42.820;23.374;2022-08-11T12:56:36;9.33;;;4.55;;
31872;SDS011;22407;42.820;23.374;2022-08-11T12:59:20;10.27;;;5.10;;
31872;SDS011;22407;42.820;23.374;2022-08-11T13:02:10;8.38;;;4.25;;
31872;SDS011;22407;42.820;23.374;2022-08-11T13:04:58;8.35;;;4.17;;
31872;SDS011;22407;42.820;23.374;2022-08-11T13:07:32;9.38;;;4.33;;
31872;SDS011;22407;42.820;23.374;2022-08-11T13:10:03;8.98;;;4.17;;
31872;SDS011;22407;42.820;23.374;2022-08-11T13:12:33;8.50;;;4.23;;
31872;SDS011;22407;42.820;23.374;2022-08-11T13:15:17;8.60;;;3.75;;
31872;SDS011;22407;42.820;23.374;2022-08-11T13:17:51;9.10;;;3.90;;
31872;SDS011;22407;42.820;23.374;2022-08-11T13:20:22;9.23;;;3.90;;
31872;SDS011;22407;42.820;23.374;2022-08-11T13:22:53;8.65;;;4.10;;
31872;SDS011;22407;42.820;23.374;2022-08-11T13:25:25;7.30;;;3.97;;
31872;SDS011;22407;42.820;23.374;2022-08-11T13:27:57;9.58;;;4.08;;
31872;SDS011;22407;42.820;23.374;2022-08-11T13:30:29;7.83;;;4.10;;
31872;SDS011;22407;42.820;23.374;2022-08-11T13:33:17;8.48;;;3.90;;
31872;SDS011;22407;42.820;23.374;2022-08-11T13:35:47;9.05;;;3.92;;
31872;SDS011;22407;42.820;23.374;2022-08-11T13:38:19;8.07;;;4.10;;
31872;SDS011;22407;42.820;23.374;2022-08-11T13:40:57;7.95;;;3.92;;
31872;SDS011;22407;42.820;23.374;2022-08-11T13:43:22;8.80;;;3.90;;
31872;SDS011;22407;42.820;23.374;2022-08-11T13:45:51;8.95;;;4.15;;
31872;SDS011;22407;42.820;23.374;2022-08-11T13:48:23;7.30;;;3.95;;
31872;SDS011;22407;42.820;23.374;2022-08-11T13:50:54;8.07;;;4.10;;
31872;SDS011;22407;42.820;23.374;2022-08-11T13:53:43;7.00;;;3.92;;
31872;SDS011;22407;42.820;23.374;2022-08-11T13:56:12;7.60;;;3.92;;
31872;SDS011;22407;42.820;23.374;2022-08-11T13:58:41;8.18;;;3.92;;
31872;SDS011;22407;42.820;23.374;2022-08-11T14:01:10;7.55;;;3.75;;
31872;SDS011;22407;42.820;23.374;2022-08-11T14:03:39;8.40;;;4.13;;
31872;SDS011;22407;42.820;23.374;2022-08-11T14:06:11;8.53;;;3.65;;
31872;SDS011;22407;42.820;23.374;2022-08-11T14:08:42;7.92;;;3.80;;
31872;SDS011;22407;42.820;23.374;2022-08-11T14:11:12;7.10;;;3.70;;
31872;SDS011;22407;42.820;23.374;2022-08-11T14:13:45;7.85;;;4.22;;
31872;SDS011;22407;42.820;23.374;2022-08-11T14:16:20;7.53;;;3.73;;
31872;SDS011;22407;42.820;23.374;2022-08-11T14:18:51;7.35;;;3.72;;
31872;SDS011;22407;42.820;23.374;2022-08-11T14:21:22;7.62;;;3.58;;
31872;SDS011;22407;42.820;23.374;2022-08-11T14:24:10;9.25;;;4.37;;
31872;SDS011;22407;42.820;23.374;2022-08-11T14:26:40;8.85;;;3.80;;
31872;SDS011;22407;42.820;23.374;2022-08-11T14:29:16;10.87;;;3.57;;
31872;SDS011;22407;42.820;23.374;2022-08-11T14:31:53;6.62;;;3.47;;
31872;SDS011;22407;42.820;23.374;2022-08-11T14:34:26;7.15;;;3.67;;
31872;SDS011;22407;42.820;23.374;2022-08-11T14:36:59;9.13;;;3.65;;
31872;SDS011;22407;42.820;23.374;2022-08-11T14:39:40;8.35;;;3.50;;
31872;SDS011;22407;42.820;23.374;2022-08-11T14:42:15;7.97;;;3.77;;
31872;SDS011;22407;42.820;23.374;2022-08-11T14:45:04;7.65;;;3.72;;
31872;SDS011;22407;42.820;23.374;2022-08-11T14:47:52;8.20;;;3.80;;
31872;SDS011;22407;42.820;23.374;2022-08-11T14:50:24;8.10;;;4.03;;
31872;SDS011;22407;42.820;23.374;2022-08-11T14:52:55;7.47;;;3.98;;
31872;SDS011;22407;42.820;23.374;2022-08-11T14:55:31;7.30;;;4.20;;
31872;SDS011;22407;42.820;23.374;2022-08-11T14:58:27;7.45;;;3.80;;
31872;SDS011;22407;42.820;23.374;2022-08-11T15:00:57;7.92;;;3.52;;
31872;SDS011;22407;42.820;23.374;2022-08-11T15:03:29;7.97;;;3.65;;
31872;SDS011;22407;42.820;23.374;2022-08-11T15:06:00;7.78;;;3.50;;
31872;SDS011;22407;42.820;23.374;2022-08-11T15:08:35;8.50;;;3.50;;
31872;SDS011;22407;42.820;23.374;2022-08-11T15:11:24;7.45;;;4.00;;
31872;SDS011;22407;42.820;23.374;2022-08-11T15:14:16;8.03;;;3.42;;
31872;SDS011;22407;42.820;23.374;2022-08-11T15:16:47;7.12;;;3.70;;
31872;SDS011;22407;42.820;23.374;2022-08-11T15:19:34;7.10;;;3.77;;
31872;SDS011;22407;42.820;23.374;2022-08-11T15:22:07;9.63;;;3.83;;
31872;SDS011;22407;42.820;23.374;2022-08-11T15:24:56;7.92;;;4.00;;
31872;SDS011;22407;42.820;23.374;2022-08-11T15:27:26;8.35;;;3.33;;
31872;SDS011;22407;42.820;23.374;2022-08-11T15:30:15;8.15;;;3.72;;
31872;SDS011;22407;42.820;23.374;2022-08-11T15:33:06;8.40;;;3.70;;
31872;SDS011;22407;42.820;23.374;2022-08-11T15:35:54;8.07;;;3.50;;
31872;SDS011;22407;42.820;23.374;2022-08-11T15:38:43;6.70;;;3.50;;
31872;SDS011;22407;42.820;23.374;2022-08-11T15:41:19;8.05;;;3.40;;
31872;SDS011;22407;42.820;23.374;2022-08-11T15:44:09;6.60;;;3.42;;
31872;SDS011;22407;42.820;23.374;2022-08-11T15:46:58;6.78;;;3.40;;
31872;SDS011;22407;42.820;23.374;2022-08-11T15:49:33;8.40;;;3.50;;
31872;SDS011;22407;42.820;23.374;2022-08-11T15:52:06;7.37;;;3.67;;
31872;SDS011;22407;42.820;23.374;2022-08-11T15:54:38;8.65;;;3.77;;
31872;SDS011;22407;42.820;23.374;2022-08-11T15:57:09;7.70;;;3.50;;
31872;SDS011;22407;42.820;23.374;2022-08-11T15:59:43;9.30;;;3.95;;
31872;SDS011;22407;42.820;23.374;2022-08-11T16:02:29;8.00;;;3.60;;
31872;SDS011;22407;42.820;23.374;2022-08-11T16:05:18;7.20;;;3.60;;
31872;SDS011;22407;42.820;23.374;2022-08-11T16:07:48;6.90;;;3.60;;
31872;SDS011;22407;42.820;23.374;2022-08-11T16:10:19;6.80;;;3.27;;
31872;SDS011;22407;42.820;23.374;2022-08-11T16:12:49;6.55;;;3.40;;
31872;SDS011;22407;42.820;23.374;2022-08-11T16:15:41;8.40;;;3.97;;
31872;SDS011;22407;42.820;23.374;2022-08-11T16:18:38;7.33;;;3.42;;
31872;SDS011;22407;42.820;23.374;2022-08-11T16:21:24;7.30;;;3.37;;
31872;SDS011;22407;42.820;23.374;2022-08-11T16:24:00;6.53;;;3.40;;
31872;SDS011;22407;42.820;23.374;2022-08-11T16:26:34;9.25;;;3.60;;
31872;SDS011;22407;42.820;23.374;2022-08-11T16:29:05;6.30;;;2.90;;
31872;SDS011;22407;42.820;23.374;2022-08-11T16:31:37;7.90;;;3.70;;
31872;SDS011;22407;42.820;23.374;2022-08-11T16:34:08;6.60;;;3.35;;
31872;SDS011;22407;42.820;23.374;2022-08-11T16:36:38;7.30;;;3.47;;
31872;SDS011;22407;42.820;23.374;2022-08-11T16:39:25;7.37;;;3.27;;
31872;SDS011;22407;42.820;23.374;2022-08-11T16:41:54;6.53;;;3.13;;
31872;SDS011;22407;42.820;23.374;2022-08-11T16:44:41;8.45;;;3.40;;
31872;SDS011;22407;42.820;23.374;2022-08-11T16:47:28;7.17;;;3.15;;
31872;SDS011;22407;42.820;23.374;2022-08-11T16:49:57;7.15;;;3.50;;
31872;SDS011;22407;42.820;23.374;2022-08-11T16:52:27;8.40;;;3.67;;
31872;SDS011;22407;42.820;23.374;2022-08-11T16:54:56;7.17;;;3.40;;
31872;SDS011;22407;42.820;23.374;2022-08-11T16:57:27;8.05;;;3.50;;
31872;SDS011;22407;42.820;23.374;2022-08-11T17:00:15;8.30;;;3.00;;
31872;SDS011;22407;42.820;23.374;2022-08-11T17:02:46;7.87;;;3.50;;
31872;SDS011;22407;42.820;23.374;2022-08-11T17:05:50;8.43;;;3.62;;
31872;SDS011;22407;42.820;23.374;2022-08-11T17:08:39;8.63;;;3.80;;
31872;SDS011;22407;42.820;23.374;2022-08-11T17:11:44;8.73;;;3.83;;
31872;SDS011;22407;42.820;23.374;2022-08-11T17:14:36;8.35;;;3.42;;
31872;SDS011;22407;42.820;23.374;2022-08-11T17:17:20;8.00;;;3.42;;
31872;SDS011;22407;42.820;23.374;2022-08-11T17:19:49;7.60;;;3.47;;
31872;SDS011;22407;42.820;23.374;2022-08-11T17:22:20;6.63;;;3.20;;
31872;SDS011;22407;42.820;23.374;2022-08-11T17:25:07;8.03;;;3.50;;
31872;SDS011;22407;42.820;23.374;2022-08-11T17:27:37;6.72;;;2.90;;
31872;SDS011;22407;42.820;23.374;2022-08-11T17:30:11;7.15;;;3.25;;
31872;SDS011;22407;42.820;23.374;2022-08-11T17:32:42;6.67;;;3.20;;
31872;SDS011;22407;42.820;23.374;2022-08-11T17:35:37;7.33;;;3.10;;
31872;SDS011;22407;42.820;23.374;2022-08-11T17:38:20;6.70;;;3.08;;
31872;SDS011;22407;42.820;23.374;2022-08-11T17:40:51;7.10;;;3.65;;
31872;SDS011;22407;42.820;23.374;2022-08-11T17:43:39;7.83;;;3.47;;
31872;SDS011;22407;42.820;23.374;2022-08-11T17:46:26;7.28;;;3.47;;
31872;SDS011;22407;42.820;23.374;2022-08-11T17:49:15;8.37;;;3.67;;
31872;SDS011;22407;42.820;23.374;2022-08-11T17:51:46;7.97;;;3.42;;
31872;SDS011;22407;42.820;23.374;2022-08-11T17:54:35;7.25;;;3.40;;
31872;SDS011;22407;42.820;23.374;2022-08-11T17:57:24;7.12;;;3.12;;
31872;SDS011;22407;42.820;23.374;2022-08-11T18:00:13;7.37;;;3.30;;
31872;SDS011;22407;42.820;23.374;2022-08-11T18:02:43;8.03;;;3.13;;
31872;SDS011;22407;42.820;23.374;2022-08-11T18:05:33;7.37;;;3.45;;
31872;SDS011;22407;42.820;23.374;2022-08-11T18:08:05;7.65;;;3.40;;
31872;SDS011;22407;42.820;23.374;2022-08-11T18:10:54;7.75;;;3.45;;
31872;SDS011;22407;42.820;23.374;2022-08-11T18:13:42;6.37;;;3.17;;
31872;SDS011;22407;42.820;23.374;2022-08-11T18:16:31;7.20;;;3.30;;
31872;SDS011;22407;42.820;23.374;2022-08-11T18:19:18;7.10;;;3.15;;
31872;SDS011;22407;42.820;23.374;2022-08-11T18:22:08;7.85;;;3.10;;
31872;SDS011;22407;42.820;23.374;2022-08-11T18:25:14;7.67;;;4.10;;
31872;SDS011;22407;42.820;23.374;2022-08-11T18:28:01;6.70;;;3.30;;
31872;SDS011;22407;42.820;23.374;2022-08-11T18:30:51;6.87;;;3.10;;
31872;SDS011;22407;42.820;23.374;2022-08-11T18:33:45;6.97;;;3.17;;
31872;SDS011;22407;42.820;23.374;2022-08-11T18:36:35;7.33;;;3.33;;
31872;SDS011;22407;42.820;23.374;2022-08-11T18:39:22;7.42;;;3.10;;
31872;SDS011;22407;42.820;23.374;2022-08-11T18:42:12;7.10;;;3.45;;
31872;SDS011;22407;42.820;23.374;2022-08-11T18:45:03;7.37;;;3.10;;
31872;SDS011;22407;42.820;23.374;2022-08-11T18:47:54;7.03;;;3.45;;
31872;SDS011;22407;42.820;23.374;2022-08-11T18:50:42;7.25;;;3.33;;
31872;SDS011;22407;42.820;23.374;2022-08-11T18:53:31;7.53;;;3.30;;
31872;SDS011;22407;42.820;23.374;2022-08-11T18:56:21;6.92;;;3.50;;
31872;SDS011;22407;42.820;23.374;2022-08-11T18:59:09;6.97;;;3.30;;
31872;SDS011;22407;42.820;23.374;2022-08-11T19:01:58;7.78;;;3.20;;
31872;SDS011;22407;42.820;23.374;2022-08-11T19:04:45;7.25;;;3.20;;
31872;SDS011;22407;42.820;23.374;2022-08-11T19:07:33;7.70;;;3.10;;